Dades meteomassalio
Diari Summary for Setembre 24, 2017 Units:  English    Metric   Both
« Previous Day
Next Day »
Diari Semanal Mensual Anual Personalitzat
  Maxima: Minima: Mijana:
Temperatura: TemperatureC °F 9.4 °F 17.6 °F
Rosada: DewpointC °F 4.8 °F 9.9 °F
Humitat: Humidity % 31 % 65 %
Velocitat del vent: WindSpeedKMH mph 0.0 mph 2.5 mph
Racha vent: WindSpeedGustKMH mph - -
Vent:- - WNW
Pressio: PressurehPa in 1019.2 in -
Pluja: 0.0 in    
Historical Graphs
 
 
Tabular Data for Setembre 24, 2017
Time Temperature Dew Point Pressure Wind Wind Speed Wind Gust Humidity Rainfall Rate (Hourly) solar Conditions
TemperatureC °F DewpointC °F PressurehPa in Calm     Humidity % HourlyPrecipMM in SolarRadiationWatts/m^2 W/m2 Conditions
00:00 13.3 °F 10.7 °F 1021.9 in Calm     84 % 0.0 in 0.0 W/m2 CLR
00:05 13.3 °F 10.7 °F 1021.9 in Calm     84 % 0.0 in 0.0 W/m2 CLR
00:11 13.3 °F 10.7 °F 1021.9 in Calm     84 % 0.0 in 0.0 W/m2 CLR
00:16 13.3 °F 10.7 °F 1021.9 in Calm     84 % 0.0 in 0.0 W/m2 CLR
00:21 13.3 °F 10.7 °F 1021.9 in Calm     84 % 0.0 in 0.0 W/m2 CLR
00:26 13.3 °F 10.7 °F 1021.9 in Calm     84 % 0.0 in 0.0 W/m2 CLR
00:31 12.8 °F 10.2 °F 1021.9 in Calm     84 % 0.0 in 0.0 W/m2 CLR
00:36 12.8 °F 10.3 °F 1021.9 in Calm     85 % 0.0 in 0.0 W/m2 CLR
00:41 12.8 °F 10.5 °F 1021.9 in Calm     86 % 0.0 in 0.0 W/m2 CLR
00:46 12.8 °F 10.5 °F 1021.9 in Calm     86 % 0.0 in 0.0 W/m2 CLR
00:51 12.8 °F 10.5 °F 1021.9 in Calm     86 % 0.0 in 0.0 W/m2 CLR
00:56 12.8 °F 10.5 °F 1021.9 in Calm     86 % 0.0 in 0.0 W/m2 CLR
01:01 12.8 °F 10.2 °F 1021.9 in Calm     84 % 0.0 in 0.0 W/m2 CLR
01:06 13.3 °F 10.9 °F 1021.9 in Calm     85 % 0.0 in 0.0 W/m2 CLR
01:11 13.3 °F 10.9 °F 1021.9 in Calm     85 % 0.0 in 0.0 W/m2 CLR
01:16 13.3 °F 10.9 °F 1021.9 in Calm     85 % 0.0 in 0.0 W/m2 CLR
01:21 13.3 °F 10.9 °F 1021.9 in Calm     85 % 0.0 in 0.0 W/m2 CLR
01:26 12.8 °F 10.3 °F 1021.9 in Calm     85 % 0.0 in 0.0 W/m2 CLR
01:31 12.8 °F 10.3 °F 1021.9 in Calm     85 % 0.0 in 0.0 W/m2 CLR
01:36 12.8 °F 10.3 °F 1022.2 in Calm     85 % 0.0 in 0.0 W/m2 CLR
01:41 12.2 °F 9.9 °F 1022.2 in Calm     86 % 0.0 in 0.0 W/m2 CLR
01:46 12.2 °F 9.9 °F 1022.2 in Calm     86 % 0.0 in 0.0 W/m2 CLR
01:51 12.2 °F 9.9 °F 1022.2 in Calm     86 % 0.0 in 0.0 W/m2 CLR
01:56 12.2 °F 10.1 °F 1022.2 in Calm     87 % 0.0 in 0.0 W/m2 CLR
02:01 11.7 °F 9.6 °F 1022.2 in Calm     87 % 0.0 in 0.0 W/m2 CLR
02:06 11.7 °F 9.6 °F 1022.2 in Calm     87 % 0.0 in 0.0 W/m2 CLR
02:11 11.7 °F 9.6 °F 1022.2 in Calm     87 % 0.0 in 0.0 W/m2 CLR
02:16 11.7 °F 9.6 °F 1022.2 in Calm     87 % 0.0 in 0.0 W/m2 CLR
02:21 11.7 °F 9.7 °F 1022.2 in Calm     88 % 0.0 in 0.0 W/m2 CLR
02:26 11.7 °F 9.7 °F 1022.2 in Calm     88 % 0.0 in 0.0 W/m2 CLR
02:31 11.1 °F 9.2 °F 1022.2 in Calm     88 % 0.0 in 0.0 W/m2 CLR
02:36 11.7 °F 9.7 °F 1022.2 in Calm     88 % 0.0 in 0.0 W/m2 CLR
02:41 11.7 °F 9.7 °F 1022.2 in Calm     88 % 0.0 in 0.0 W/m2 CLR
02:46 11.7 °F 9.7 °F 1022.2 in Calm     88 % 0.0 in 0.0 W/m2 CLR
02:51 11.7 °F 9.9 °F 1022.2 in Calm     89 % 0.0 in 0.0 W/m2 CLR
02:56 11.7 °F 9.9 °F 1022.2 in Calm     89 % 0.0 in 0.0 W/m2 CLR
03:01 11.7 °F 9.9 °F 1022.2 in Calm     89 % 0.0 in 0.0 W/m2 CLR
03:06 11.7 °F 9.9 °F 1022.2 in Calm     89 % 0.0 in 0.0 W/m2 CLR
03:11 11.7 °F 9.9 °F 1021.9 in Calm     89 % 0.0 in 0.0 W/m2 CLR
03:16 11.1 °F 9.4 °F 1021.9 in Calm     89 % 0.0 in 0.0 W/m2 CLR
03:21 11.1 °F 9.4 °F 1021.9 in Calm     89 % 0.0 in 0.0 W/m2 CLR
03:26 11.1 °F 9.4 °F 1021.9 in Calm     89 % 0.0 in 0.0 W/m2 CLR
03:31 11.1 °F 9.4 °F 1021.9 in Calm     89 % 0.0 in 0.0 W/m2 CLR
03:36 11.1 °F 9.4 °F 1021.9 in Calm     89 % 0.0 in 0.0 W/m2 CLR
03:41 10.6 °F 8.8 °F 1021.9 in Calm     89 % 0.0 in 0.0 W/m2 CLR
03:46 10.6 °F 9.0 °F 1021.9 in Calm     90 % 0.0 in 0.0 W/m2 CLR
03:51 10.6 °F 9.0 °F 1021.9 in Calm     90 % 0.0 in 0.0 W/m2 CLR
03:56 10.6 °F 8.8 °F 1021.9 in Calm     89 % 0.0 in 0.0 W/m2 CLR
04:01 10.6 °F 9.0 °F 1021.9 in Calm     90 % 0.0 in 0.0 W/m2 CLR
04:06 10.6 °F 9.0 °F 1021.9 in Calm     90 % 0.0 in 0.0 W/m2 CLR
04:11 10.6 °F 9.0 °F 1021.9 in SE 7.4 mph 7.4 mph 90 % 0.0 in 0.0 W/m2 CLR
04:16 10.0 °F 8.4 °F 1021.9 in Calm     90 % 0.0 in 0.0 W/m2 CLR
04:21 10.0 °F 8.4 °F 1021.6 in Calm     90 % 0.0 in 0.0 W/m2 CLR
04:26 10.0 °F 8.4 °F 1021.6 in Calm     90 % 0.0 in 0.0 W/m2 CLR
04:32 10.0 °F 8.4 °F 1021.9 in Calm     90 % 0.0 in 0.0 W/m2 CLR
04:37 10.0 °F 8.4 °F 1021.9 in Calm     90 % 0.0 in 0.0 W/m2 CLR
04:42 10.0 °F 8.4 °F 1021.9 in Calm     90 % 0.0 in 0.0 W/m2 CLR
04:47 10.0 °F 8.4 °F 1021.9 in Calm     90 % 0.0 in 0.0 W/m2 CLR
04:52 10.0 °F 8.4 °F 1021.9 in Calm     90 % 0.0 in 0.0 W/m2 CLR
04:57 10.0 °F 8.4 °F 1021.9 in Calm     90 % 0.0 in 0.0 W/m2 CLR
05:02 10.0 °F 8.4 °F 1021.6 in Calm     90 % 0.0 in 0.0 W/m2 CLR
05:07 10.0 °F 8.4 °F 1021.9 in Calm     90 % 0.0 in 0.0 W/m2 CLR
05:12 10.0 °F 8.6 °F 1021.6 in Calm     91 % 0.0 in 0.0 W/m2 CLR
05:17 10.0 °F 8.6 °F 1021.9 in Calm     91 % 0.0 in 0.0 W/m2 CLR
05:21 10.0 °F 8.4 °F 1021.9 in Calm     90 % 0.0 in 0.0 W/m2 CLR
05:23 10.0 °F 8.4 °F 1021.9 in Calm     90 % 0.0 in 0.0 W/m2 CLR
05:24 10.0 °F 8.4 °F 1021.9 in Calm     90 % 0.0 in 0.0 W/m2 CLR
05:26 10.0 °F 8.4 °F 1021.9 in Calm     90 % 0.0 in 0.0 W/m2 CLR
05:36 10.0 °F 8.6 °F 1021.9 in Calm     91 % 0.0 in 0.0 W/m2 CLR
05:41 10.0 °F 8.6 °F 1021.9 in Calm     91 % 0.0 in 0.0 W/m2 CLR
05:46 9.4 °F 8.1 °F 1021.9 in Calm     91 % 0.0 in 0.0 W/m2 CLR
05:51 9.4 °F 8.1 °F 1021.9 in Calm     91 % 0.0 in 0.0 W/m2 CLR
05:56 9.4 °F 8.1 °F 1021.9 in Calm     91 % 0.0 in 0.0 W/m2 CLR
06:01 9.4 °F 8.1 °F 1021.9 in Calm     91 % 0.0 in 0.0 W/m2 CLR
06:06 9.4 °F 8.1 °F 1021.9 in Calm     91 % 0.0 in 0.0 W/m2 CLR
06:11 9.4 °F 8.1 °F 1021.9 in Calm     91 % 0.0 in 0.0 W/m2 CLR
06:16 9.4 °F 8.1 °F 1021.9 in Calm     91 % 0.0 in 0.0 W/m2 CLR
06:21 9.4 °F 8.1 °F 1021.9 in Calm     91 % 0.0 in 0.0 W/m2 CLR
06:26 9.4 °F 8.1 °F 1021.9 in Calm     91 % 0.0 in 0.0 W/m2 CLR
06:31 9.4 °F 8.1 °F 1021.9 in Calm     91 % 0.0 in 0.0 W/m2 CLR
06:36 9.4 °F 8.1 °F 1021.9 in Calm     91 % 0.0 in 0.0 W/m2 CLR
06:41 9.4 °F 8.1 °F 1021.9 in Calm     91 % 0.0 in 0.0 W/m2 CLR
06:46 9.4 °F 8.1 °F 1021.9 in Calm     91 % 0.0 in 0.0 W/m2 CLR
06:51 9.4 °F 8.1 °F 1021.9 in Calm     91 % 0.0 in 0.0 W/m2 CLR
06:56 9.4 °F 8.1 °F 1021.9 in Calm     91 % 0.0 in 0.0 W/m2 CLR
07:01 9.4 °F 8.2 °F 1021.9 in Calm     92 % 0.0 in 0.0 W/m2 CLR
07:06 9.4 °F 8.2 °F 1021.9 in Calm     92 % 0.0 in 0.0 W/m2 CLR
07:11 9.4 °F 8.1 °F 1021.9 in Calm     91 % 0.0 in 0.0 W/m2 CLR
07:16 9.4 °F 8.2 °F 1021.9 in Calm     92 % 0.0 in 0.0 W/m2 CLR
07:21 9.4 °F 8.2 °F 1022.2 in South 3.7 mph 3.7 mph 92 % 0.0 in 0.0 W/m2 CLR
07:26 9.4 °F 8.2 °F 1022.2 in South 7.4 mph 7.4 mph 92 % 0.0 in 0.0 W/m2 CLR
07:31 10.0 °F 8.8 °F 1022.2 in Calm     92 % 0.0 in 0.0 W/m2 CLR
07:36 10.0 °F 8.8 °F 1022.2 in SE 5.6 mph   92 % 0.0 in 0.0 W/m2 CLR
07:41 10.0 °F 8.6 °F 1022.2 in Calm     91 % 0.0 in 0.0 W/m2 OVC
07:47 10.0 °F 8.8 °F 1022.6 in Calm     92 % 0.0 in 0.0 W/m2 OVC
07:51 10.0 °F 8.8 °F 1022.6 in Calm     92 % 0.0 in 7.0 W/m2 OVC
07:56 10.0 °F 8.8 °F 1022.6 in Calm     92 % 0.0 in 11.0 W/m2 BKN
08:01 9.4 °F 8.2 °F 1022.6 in Calm     92 % 0.0 in 16.0 W/m2 BKN
08:06 9.4 °F 8.2 °F 1022.6 in Calm     92 % 0.0 in 21.0 W/m2 BKN
08:12 9.4 °F 8.2 °F 1022.6 in Calm     92 % 0.0 in 28.0 W/m2 BKN
08:17 10.0 °F 8.8 °F 1022.6 in Calm     92 % 0.0 in 33.0 W/m2 BKN
08:22 10.0 °F 8.8 °F 1022.6 in Calm     92 % 0.0 in 42.0 W/m2 BKN
08:27 10.0 °F 8.8 °F 1022.6 in Calm     92 % 0.0 in 60.0 W/m2 SCT
08:32 10.0 °F 8.8 °F 1022.6 in Calm     92 % 0.0 in 65.0 W/m2 SCT
08:37 10.0 °F 8.8 °F 1022.6 in Calm     92 % 0.0 in 74.0 W/m2 FEW
08:42 10.6 °F 9.3 °F 1022.6 in Calm     92 % 0.0 in 63.0 W/m2 SCT
08:47 10.6 °F 9.2 °F 1022.6 in Calm     91 % 0.0 in 54.0 W/m2 SCT
08:52 11.1 °F 9.7 °F 1022.6 in Calm     91 % 0.0 in 86.0 W/m2 SCT
08:57 11.1 °F 9.7 °F 1022.6 in Calm     91 % 0.0 in 74.0 W/m2 FEW
09:02 11.1 °F 9.7 °F 1022.6 in Calm     91 % 0.0 in 121.0 W/m2 CLR
09:07 11.1 °F 9.8 °F 1022.9 in Calm     92 % 0.0 in 160.0 W/m2 CLR
09:12 11.7 °F 10.2 °F 1022.6 in Calm     91 % 0.0 in 120.0 W/m2 CLR
09:17 11.7 °F 10.1 °F 1022.6 in Calm     90 % 0.0 in 221.0 W/m2 CLR
09:22 12.2 °F 10.4 °F 1022.6 in Calm     89 % 0.0 in 193.0 W/m2 CLR
09:27 12.2 °F 10.4 °F 1022.6 in Calm     89 % 0.0 in 281.0 W/m2 CLR
09:32 12.8 °F 10.8 °F 1022.6 in Calm     88 % 0.0 in 211.0 W/m2 CLR
09:37 12.8 °F 10.7 °F 1022.9 in Calm     87 % 0.0 in 190.0 W/m2 CLR
09:42 13.3 °F 11.1 °F 1022.9 in Calm     86 % 0.0 in 265.0 W/m2 CLR
09:47 13.3 °F 10.7 °F 1022.9 in Calm     84 % 0.0 in 216.0 W/m2 CLR
09:57 13.9 °F 10.9 °F 1022.9 in Calm     82 % 0.0 in 281.0 W/m2 CLR
10:02 13.9 °F 10.9 °F 1022.9 in Calm     82 % 0.0 in 343.0 W/m2 CLR
10:07 15.0 °F 11.8 °F 1022.9 in Calm     81 % 0.0 in 295.0 W/m2 CLR
10:12 15.6 °F 12.1 °F 1022.9 in Calm     80 % 0.0 in 380.0 W/m2 CLR
10:17 16.1 °F 12.4 °F 1022.9 in Calm     79 % 0.0 in 374.0 W/m2 CLR
10:22 16.1 °F 12.1 °F 1022.6 in Calm     77 % 0.0 in 339.0 W/m2 CLR
10:27 17.2 °F 13.2 °F 1022.6 in Calm     77 % 0.0 in 457.0 W/m2 CLR
10:32 18.3 °F 13.8 °F 1022.6 in Calm     75 % 0.0 in 469.0 W/m2 CLR
10:37 18.9 °F 14.2 °F 1022.6 in Calm     74 % 0.0 in 457.0 W/m2 CLR
10:42 18.9 °F 13.7 °F 1022.6 in Calm     72 % 0.0 in 482.0 W/m2 CLR
10:47 19.4 °F 14.1 °F 1022.6 in Calm     71 % 0.0 in 410.0 W/m2 CLR
10:52 19.4 °F 14.1 °F 1022.6 in Calm     71 % 0.0 in 374.0 W/m2 CLR
10:57 19.4 °F 13.6 °F 1022.6 in Calm     69 % 0.0 in 392.0 W/m2 CLR
11:02 20.0 °F 14.1 °F 1022.6 in Calm     69 % 0.0 in 510.0 W/m2 CLR
11:07 20.0 °F 13.7 °F 1022.6 in Calm     67 % 0.0 in 483.0 W/m2 CLR
11:12 20.0 °F 13.2 °F 1022.6 in Calm     65 % 0.0 in 531.0 W/m2 CLR
11:17 20.6 °F 13.3 °F 1022.6 in North 5.6 mph 5.6 mph 63 % 0.0 in 538.0 W/m2 CLR
11:22 20.6 °F 13.5 °F 1022.6 in NNW 5.6 mph 5.6 mph 64 % 0.0 in 557.0 W/m2 CLR
11:27 21.1 °F 14.1 °F 1022.6 in North 3.2 mph 3.2 mph 64 % 0.0 in 566.0 W/m2 CLR
11:32 21.1 °F 14.1 °F 1022.6 in North 5.6 mph 5.6 mph 64 % 0.0 in 577.0 W/m2 CLR
11:37 21.7 °F 14.6 °F 1022.6 in NNW 5.6 mph 5.6 mph 64 % 0.0 in 589.0 W/m2 CLR
11:38 21.7 °F 14.6 °F 1022.6 in North 5.6 mph 5.6 mph 64 % 0.0 in 591.0 W/m2 CLR
11:43 21.7 °F 14.3 °F 1022.6 in NNW 8.0 mph 8.0 mph 63 % 0.0 in 601.0 W/m2 CLR
11:48 22.2 °F 15.1 °F 1022.6 in North 1.9 mph 1.9 mph 64 % 0.0 in 608.0 W/m2 CLR
11:53 22.2 °F 14.8 °F 1022.6 in NNW 13.0 mph 13.0 mph 63 % 0.0 in 617.0 W/m2 CLR
11:58 22.2 °F 14.8 °F 1022.6 in NNW 9.3 mph 9.3 mph 63 % 0.0 in 628.0 W/m2 CLR
12:03 22.8 °F 15.1 °F 1022.6 in North 7.4 mph 7.4 mph 62 % 0.0 in 636.0 W/m2 CLR
12:08 23.3 °F 15.7 °F 1022.6 in NNW 7.4 mph 7.4 mph 62 % 0.0 in 585.0 W/m2 CLR
12:13 22.8 °F 14.9 °F 1022.2 in NNW 6.4 mph 6.4 mph 61 % 0.0 in 652.0 W/m2 CLR
12:18 23.3 °F 15.4 °F 1022.2 in NNE 3.7 mph   61 % 0.0 in 657.0 W/m2 CLR
12:23 23.3 °F 15.4 °F 1022.2 in NNW 3.7 mph 3.7 mph 61 % 0.0 in 666.0 W/m2 CLR
12:28 23.9 °F 15.9 °F 1022.2 in NNW 3.7 mph 3.7 mph 61 % 0.0 in 673.0 W/m2 CLR
12:33 23.9 °F 15.4 °F 1021.9 in NW 3.7 mph 3.7 mph 59 % 0.0 in 679.0 W/m2 CLR
12:38 23.9 °F 15.1 °F 1021.9 in NNW 16.7 mph 16.7 mph 58 % 0.0 in 684.0 W/m2 CLR
12:43 23.9 °F 14.8 °F 1021.9 in North 14.8 mph 14.8 mph 57 % 0.0 in 691.0 W/m2 CLR
12:48 24.4 °F 15.4 °F 1021.9 in NNW 16.7 mph 16.7 mph 57 % 0.0 in 698.0 W/m2 CLR
12:53 24.4 °F 15.4 °F 1021.9 in North 13.0 mph 13.0 mph 57 % 0.0 in 701.0 W/m2 CLR
12:58 25.0 °F 15.1 °F 1021.9 in NW 7.4 mph 7.4 mph 54 % 0.0 in 705.0 W/m2 CLR
13:04 25.6 °F 14.7 °F 1021.9 in NE 9.3 mph 9.3 mph 51 % 0.0 in 708.0 W/m2 CLR
13:09 26.1 °F 15.5 °F 1021.9 in WSW 7.4 mph 7.4 mph 52 % 0.0 in 714.0 W/m2 CLR
13:14 25.6 °F 13.7 °F 1021.9 in SW 3.7 mph   48 % 0.0 in 719.0 W/m2 CLR
13:19 26.1 °F 13.6 °F 1021.9 in West 16.7 mph 16.7 mph 46 % 0.0 in 721.0 W/m2 CLR
13:24 25.6 °F 13.1 °F 1021.9 in WSW 18.5 mph 18.5 mph 46 % 0.0 in 722.0 W/m2 CLR
13:29 25.6 °F 12.4 °F 1021.9 in NW 14.5 mph 14.5 mph 44 % 0.0 in 724.0 W/m2 CLR
13:34 26.1 °F 12.6 °F 1021.9 in WNW 14.8 mph 14.8 mph 43 % 0.0 in 726.0 W/m2 CLR
13:39 26.1 °F 12.9 °F 1021.9 in WNW 16.7 mph 16.7 mph 44 % 0.0 in 729.0 W/m2 CLR
13:44 26.1 °F 12.9 °F 1021.6 in WSW 14.8 mph 14.8 mph 44 % 0.0 in 729.0 W/m2 CLR
13:49 26.1 °F 12.9 °F 1021.6 in WNW 16.7 mph 16.7 mph 44 % 0.0 in 731.0 W/m2 CLR
13:54 26.1 °F 12.6 °F 1021.6 in NW 17.7 mph 17.7 mph 43 % 0.0 in 729.0 W/m2 CLR
13:59 26.7 °F 13.1 °F 1021.6 in NNW 18.5 mph 18.5 mph 43 % 0.0 in 731.0 W/m2 CLR
14:04 26.7 °F 12.7 °F 1021.6 in NW 14.8 mph 14.8 mph 42 % 0.0 in 731.0 W/m2 CLR
14:09 26.1 °F 12.2 °F 1021.2 in WNW 13.0 mph 13.0 mph 42 % 0.0 in 729.0 W/m2 CLR
14:14 26.1 °F 12.6 °F 1021.2 in NW 5.6 mph 5.6 mph 43 % 0.0 in 729.0 W/m2 CLR
14:19 26.1 °F 11.8 °F 1021.2 in West 5.6 mph 5.6 mph 41 % 0.0 in 728.0 W/m2 CLR
14:24 26.1 °F 11.4 °F 1021.2 in NW 14.8 mph 14.8 mph 40 % 0.0 in 722.0 W/m2 CLR
14:29 26.7 °F 11.9 °F 1021.2 in WNW 11.3 mph 11.3 mph 40 % 0.0 in 722.0 W/m2 CLR
14:34 26.7 °F 11.2 °F 1021.2 in NNW 9.3 mph 9.3 mph 38 % 0.0 in 719.0 W/m2 CLR
14:39 27.2 °F 11.3 °F 1021.2 in West 7.4 mph 7.4 mph 37 % 0.0 in 714.0 W/m2 CLR
14:44 27.2 °F 10.8 °F 1020.9 in West 11.1 mph 11.1 mph 36 % 0.0 in 710.0 W/m2 CLR
14:49 27.2 °F 11.3 °F 1020.9 in WNW 7.4 mph 7.4 mph 37 % 0.0 in 705.0 W/m2 CLR
14:54 27.2 °F 11.7 °F 1020.9 in Calm     38 % 0.0 in 700.0 W/m2 CLR
14:59 27.8 °F 11.3 °F 1020.9 in West 11.1 mph 11.1 mph 36 % 0.0 in 700.0 W/m2 CLR
15:04 27.2 °F 10.8 °F 1020.9 in WSW 1.9 mph   36 % 0.0 in 693.0 W/m2 CLR
15:09 27.2 °F 11.3 °F 1020.5 in NW 7.4 mph 7.4 mph 37 % 0.0 in 686.0 W/m2 CLR
15:14 27.2 °F 10.8 °F 1020.5 in Calm     36 % 0.0 in 682.0 W/m2 CLR
15:19 27.2 °F 11.3 °F 1020.5 in Calm     37 % 0.0 in 671.0 W/m2 CLR
15:24 27.2 °F 11.7 °F 1020.5 in Calm     38 % 0.0 in 668.0 W/m2 CLR
15:29 27.2 °F 10.8 °F 1020.5 in West 9.7 mph 9.7 mph 36 % 0.0 in 661.0 W/m2 CLR
15:34 27.8 °F 11.3 °F 1020.5 in WSW 5.6 mph 5.6 mph 36 % 0.0 in 654.0 W/m2 CLR
15:36 27.8 °F 11.3 °F 1020.5 in NW 11.1 mph 11.1 mph 36 % 0.0 in 650.0 W/m2 CLR
15:41 27.8 °F 11.3 °F 1020.5 in Calm   1.0 mph 36 % 0.0 in 636.0 W/m2 CLR
15:46 27.8 °F 11.3 °F 1020.2 in Calm     36 % 0.0 in 633.0 W/m2 CLR
15:51 28.3 °F 11.8 °F 1020.2 in Calm     36 % 0.0 in 624.0 W/m2 CLR
15:56 27.8 °F 10.9 °F 1020.2 in North 1.9 mph 1.9 mph 35 % 0.0 in 608.0 W/m2 CLR
16:01 27.8 °F 10.9 °F 1020.2 in WNW 16.7 mph 16.7 mph 35 % 0.0 in 601.0 W/m2 CLR
16:06 27.8 °F 10.9 °F 1020.2 in Calm     35 % 0.0 in 598.0 W/m2 CLR
16:11 27.8 °F 10.5 °F 1020.2 in WNW 5.6 mph   34 % 0.0 in 578.0 W/m2 CLR
16:16 27.8 °F 10.1 °F 1019.9 in WSW 9.3 mph 9.3 mph 33 % 0.0 in 568.0 W/m2 CLR
16:21 28.3 °F 10.9 °F 1019.9 in WNW 3.7 mph 3.7 mph 34 % 0.0 in 555.0 W/m2 CLR
16:26 28.3 °F 10.5 °F 1019.9 in NW 4.8 mph 4.8 mph 33 % 0.0 in 555.0 W/m2 CLR
16:31 28.3 °F 10.5 °F 1019.9 in North 13.0 mph 13.0 mph 33 % 0.0 in 536.0 W/m2 CLR
16:36 28.3 °F 10.9 °F 1019.9 in WNW 11.1 mph 11.1 mph 34 % 0.0 in 527.0 W/m2 CLR
16:41 28.3 °F 10.5 °F 1019.9 in NNW 8.0 mph 8.0 mph 33 % 0.0 in 510.0 W/m2 CLR
16:46 28.3 °F 10.5 °F 1019.5 in Calm     33 % 0.0 in 497.0 W/m2 CLR
16:51 28.9 °F 11.0 °F 1019.5 in North 3.7 mph 3.7 mph 33 % 0.0 in 482.0 W/m2 CLR
16:56 28.3 °F 10.5 °F 1019.5 in North 5.6 mph 5.6 mph 33 % 0.0 in 466.0 W/m2 CLR
17:06 28.3 °F 10.5 °F 1019.5 in NNW 5.6 mph 5.6 mph 33 % 0.0 in 445.0 W/m2 CLR
17:11 28.3 °F 10.5 °F 1019.5 in NNW 11.1 mph 11.1 mph 33 % 0.0 in 432.0 W/m2 CLR
17:16 28.9 °F 11.0 °F 1019.2 in Calm     33 % 0.0 in 420.0 W/m2 CLR
17:21 28.3 °F 9.6 °F 1019.2 in NNW 13.0 mph 13.0 mph 31 % 0.0 in 399.0 W/m2 CLR
17:26 28.3 °F 10.1 °F 1019.2 in Calm     32 % 0.0 in 387.0 W/m2 CLR
17:31 28.3 °F 10.5 °F 1019.2 in Calm     33 % 0.0 in 360.0 W/m2 CLR
17:36 28.3 °F 9.6 °F 1019.2 in Calm     31 % 0.0 in 352.0 W/m2 CLR
17:41 28.3 °F 9.6 °F 1019.2 in NNW 9.3 mph 9.3 mph 31 % 0.0 in 341.0 W/m2 CLR
17:46 28.3 °F 10.1 °F 1019.2 in NW 9.3 mph 9.3 mph 32 % 0.0 in 341.0 W/m2 CLR
17:51 28.3 °F 10.5 °F 1019.2 in North 5.6 mph   33 % 0.0 in 336.0 W/m2 CLR
17:56 28.3 °F 10.5 °F 1019.2 in North 5.6 mph 5.6 mph 33 % 0.0 in 301.0 W/m2 CLR
18:01 28.3 °F 10.9 °F 1019.2 in NNW 7.4 mph 7.4 mph 34 % 0.0 in 302.0 W/m2 CLR
18:07 27.8 °F 10.5 °F 1019.2 in NW 9.3 mph 9.3 mph 34 % 0.0 in 283.0 W/m2 CLR
18:12 27.8 °F 10.5 °F 1019.2 in NNW 5.6 mph   34 % 0.0 in 264.0 W/m2 CLR
18:17 27.8 °F 10.5 °F 1019.2 in NNW 5.6 mph 5.6 mph 34 % 0.0 in 248.0 W/m2 CLR
18:22 27.8 °F 10.1 °F 1019.2 in NNW 9.3 mph 9.3 mph 33 % 0.0 in 227.0 W/m2 CLR
18:27 27.2 °F 9.6 °F 1019.2 in NW 7.4 mph 7.4 mph 33 % 0.0 in 200.0 W/m2 CLR
18:32 27.2 °F 9.6 °F 1019.2 in NNW 5.6 mph 5.6 mph 33 % 0.0 in 178.0 W/m2 CLR
18:37 27.2 °F 10.0 °F 1019.2 in NW 5.6 mph 5.6 mph 34 % 0.0 in 155.0 W/m2 CLR
18:42 26.7 °F 9.5 °F 1019.2 in NNW 5.6 mph 5.6 mph 34 % 0.0 in 146.0 W/m2 CLR
18:47 26.1 °F 9.0 °F 1019.2 in Calm     34 % 0.0 in 102.0 W/m2 CLR
18:52 25.6 °F 8.6 °F 1019.2 in Calm     34 % 0.0 in 93.0 W/m2 CLR
18:57 25.0 °F 8.1 °F 1019.2 in Calm     34 % 0.0 in 81.0 W/m2 CLR
18:58 25.0 °F 8.1 °F 1019.2 in Calm     34 % 0.0 in 93.0 W/m2 CLR
19:03 24.4 °F 7.6 °F 1019.2 in Calm     34 % 0.0 in 76.0 W/m2 FEW
19:08 23.9 °F 7.1 °F 1019.2 in Calm     34 % 0.0 in 60.0 W/m2 SCT
19:13 23.3 °F 7.0 °F 1019.2 in Calm     35 % 0.0 in 53.0 W/m2 SCT
19:18 22.8 °F 6.5 °F 1019.2 in Calm     35 % 0.0 in 44.0 W/m2 BKN
19:23 22.2 °F 6.0 °F 1019.2 in Calm     35 % 0.0 in 35.0 W/m2 BKN
19:28 22.2 °F 6.4 °F 1019.2 in Calm     36 % 0.0 in 28.0 W/m2 BKN
19:33 21.7 °F 6.3 °F 1019.2 in Calm     37 % 0.0 in 21.0 W/m2 BKN
19:38 21.1 °F 5.8 °F 1019.2 in Calm     37 % 0.0 in 16.0 W/m2 BKN
19:43 21.1 °F 5.8 °F 1019.2 in Calm     37 % 0.0 in 14.0 W/m2 BKN
19:48 20.6 °F 5.3 °F 1019.2 in Calm     37 % 0.0 in 9.0 W/m2 BKN
19:53 20.0 °F 4.8 °F 1019.2 in Calm     37 % 0.0 in 0.0 W/m2 OVC
19:58 20.0 °F 5.6 °F 1019.2 in Calm     39 % 0.0 in 0.0 W/m2 OVC
20:03 19.4 °F 5.1 °F 1019.2 in Calm     39 % 0.0 in 0.0 W/m2 CLR
20:08 19.4 °F 5.8 °F 1019.2 in Calm     41 % 0.0 in 0.0 W/m2 CLR
20:13 18.9 °F 6.1 °F 1019.2 in Calm     43 % 0.0 in 0.0 W/m2 CLR
20:18 18.9 °F 6.4 °F 1019.2 in Calm     44 % 0.0 in 0.0 W/m2 CLR
20:23 18.3 °F 6.2 °F 1019.2 in Calm     45 % 0.0 in 0.0 W/m2 CLR
20:28 18.3 °F 6.8 °F 1019.2 in Calm     47 % 0.0 in 0.0 W/m2 CLR
20:33 18.3 °F 7.1 °F 1019.2 in Calm     48 % 0.0 in 0.0 W/m2 CLR
20:38 17.8 °F 6.6 °F 1019.5 in Calm     48 % 0.0 in 0.0 W/m2 CLR
20:43 17.8 °F 6.9 °F 1019.5 in Calm     49 % 0.0 in 0.0 W/m2 CLR
20:48 17.2 °F 6.7 °F 1019.5 in Calm     50 % 0.0 in 0.0 W/m2 CLR
20:53 17.2 °F 6.7 °F 1019.5 in Calm     50 % 0.0 in 0.0 W/m2 CLR
20:58 17.2 °F 7.0 °F 1019.5 in Calm     51 % 0.0 in 0.0 W/m2 CLR
21:03 16.7 °F 6.8 °F 1019.5 in Calm     52 % 0.0 in 0.0 W/m2 CLR
21:08 16.7 °F 7.1 °F 1019.9 in Calm     53 % 0.0 in 0.0 W/m2 CLR
21:13 16.7 °F 7.1 °F 1019.5 in Calm     53 % 0.0 in 0.0 W/m2 CLR
21:18 16.1 °F 6.8 °F 1019.5 in Calm     54 % 0.0 in 0.0 W/m2 CLR
21:23 16.1 °F 6.8 °F 1019.5 in Calm     54 % 0.0 in 0.0 W/m2 CLR
21:28 16.1 °F 7.1 °F 1019.9 in Calm     55 % 0.0 in 0.0 W/m2 CLR
21:33 16.1 °F 7.1 °F 1019.9 in Calm     55 % 0.0 in 0.0 W/m2 CLR
21:38 15.6 °F 6.6 °F 1019.9 in Calm     55 % 0.0 in 0.0 W/m2 CLR
21:43 15.6 °F 6.8 °F 1019.9 in Calm     56 % 0.0 in 0.0 W/m2 CLR
21:48 15.6 °F 6.8 °F 1019.9 in Calm     56 % 0.0 in 0.0 W/m2 CLR
21:53 15.6 °F 6.8 °F 1019.9 in Calm     56 % 0.0 in 0.0 W/m2 CLR
21:58 16.1 °F 7.6 °F 1019.9 in Calm     57 % 0.0 in 0.0 W/m2 CLR
22:03 16.1 °F 7.6 °F 1019.9 in Calm     57 % 0.0 in 0.0 W/m2 CLR
22:08 16.1 °F 7.8 °F 1019.9 in Calm     58 % 0.0 in 0.0 W/m2 CLR
22:14 16.1 °F 7.8 °F 1019.9 in Calm     58 % 0.0 in 0.0 W/m2 CLR
22:19 16.1 °F 8.3 °F 1019.9 in Calm     60 % 0.0 in 0.0 W/m2 CLR
22:24 15.6 °F 7.6 °F 1019.9 in Calm     59 % 0.0 in 0.0 W/m2 CLR
22:29 15.6 °F 7.3 °F 1020.2 in Calm     58 % 0.0 in 0.0 W/m2 CLR
22:34 15.0 °F 6.6 °F 1020.2 in Calm     57 % 0.0 in 0.0 W/m2 CLR
22:39 15.0 °F 6.8 °F 1019.9 in Calm     58 % 0.0 in 0.0 W/m2 CLR
22:44 15.0 °F 7.1 °F 1019.9 in Calm     59 % 0.0 in 0.0 W/m2 CLR
22:49 15.0 °F 7.3 °F 1020.2 in Calm     60 % 0.0 in 0.0 W/m2 CLR
22:54 15.0 °F 7.6 °F 1019.9 in Calm     61 % 0.0 in 0.0 W/m2 CLR
22:59 15.0 °F 7.6 °F 1019.9 in Calm     61 % 0.0 in 0.0 W/m2 CLR
23:04 15.0 °F 7.8 °F 1019.9 in Calm     62 % 0.0 in 0.0 W/m2 CLR
23:09 15.6 °F 8.3 °F 1019.9 in Calm     62 % 0.0 in 0.0 W/m2 CLR
23:19 16.1 °F 9.1 °F 1019.9 in Calm     63 % 0.0 in 0.0 W/m2 CLR
23:24 16.1 °F 9.3 °F 1019.9 in Calm     64 % 0.0 in 0.0 W/m2 CLR
23:29 16.1 °F 9.3 °F 1019.9 in Calm     64 % 0.0 in 0.0 W/m2 CLR
23:34 16.1 °F 9.3 °F 1019.9 in Calm     64 % 0.0 in 0.0 W/m2 CLR
23:39 16.1 °F 9.5 °F 1019.9 in Calm     65 % 0.0 in 0.0 W/m2 CLR
23:44 15.6 °F 9.0 °F 1019.9 in Calm     65 % 0.0 in 0.0 W/m2 CLR
23:49 15.6 °F 9.0 °F 1019.9 in Calm     65 % 0.0 in 0.0 W/m2 CLR
23:54 15.6 °F 9.2 °F 1019.9 in Calm     66 % 0.0 in 0.0 W/m2 CLR
23:59 15.0 °F 8.7 °F 1019.9 in Calm     66 % 0.0 in 0.0 W/m2 CLR
Lo Temps de Massalio
Compliments of Weather Underground - 1.25 mb